createdAt,value
2022-10-05T00:02:32.473Z,5.80
2022-10-05T00:07:36.417Z,5.93
2022-10-05T00:12:40.024Z,5.60
2022-10-05T00:17:46.009Z,5.63
2022-10-05T00:22:55.856Z,7.35
2022-10-05T00:28:00.974Z,6.82
2022-10-05T00:33:04.541Z,5.35
2022-10-05T00:38:09.115Z,6.20
2022-10-05T00:43:28.292Z,6.00
2022-10-05T00:48:42.658Z,5.32
2022-10-05T00:53:54.985Z,5.30
2022-10-05T00:59:13.560Z,5.30
2022-10-05T01:04:29.962Z,6.07
2022-10-05T01:09:56.176Z,5.85
2022-10-05T01:15:07.306Z,5.57
2022-10-05T01:20:32.947Z,6.32
2022-10-05T01:25:58.783Z,8.07
2022-10-05T01:31:20.901Z,5.07
2022-10-05T01:42:30.723Z,6.28
2022-10-05T01:47:48.083Z,6.55
2022-10-05T01:53:00.460Z,5.50
2022-10-05T01:58:17.256Z,5.40
2022-10-05T02:03:29.548Z,5.30
2022-10-05T02:09:20.267Z,5.10
2022-10-05T02:14:34.811Z,6.07
2022-10-05T02:20:10.522Z,5.83
2022-10-05T02:25:16.992Z,6.22
2022-10-05T02:30:21.411Z,6.78
2022-10-05T02:35:27.229Z,5.35
2022-10-05T02:40:39.757Z,5.72
2022-10-05T02:45:54.121Z,6.20
2022-10-05T02:51:20.563Z,6.28
2022-10-05T02:56:29.362Z,6.20
2022-10-05T03:01:52.815Z,5.07
2022-10-05T03:07:25.956Z,5.45
2022-10-05T03:13:08.291Z,5.20
2022-10-05T03:18:40.457Z,5.55
2022-10-05T03:24:13.171Z,5.60
2022-10-05T03:29:29.063Z,6.13
2022-10-05T03:34:53.526Z,6.20
2022-10-05T03:40:08.374Z,5.85
2022-10-05T03:45:32.119Z,5.93
2022-10-05T03:51:01.131Z,5.30
2022-10-05T03:56:41.179Z,5.20
2022-10-05T04:02:01.183Z,5.68
2022-10-05T04:07:11.086Z,4.85
2022-10-05T04:12:37.440Z,4.85
2022-10-05T04:17:46.826Z,5.65
2022-10-05T04:23:33.735Z,6.22
2022-10-05T04:28:54.706Z,5.95
2022-10-05T04:34:16.006Z,6.13
2022-10-05T04:39:48.455Z,6.25
2022-10-05T04:45:06.811Z,6.60
2022-10-05T04:50:31.487Z,5.28
2022-10-05T04:56:07.132Z,6.78
2022-10-05T05:01:32.492Z,5.30
2022-10-05T05:06:59.367Z,4.60
2022-10-05T05:12:40.041Z,3.75
2022-10-05T05:18:08.589Z,4.93
2022-10-05T05:23:42.267Z,4.47
2022-10-05T05:28:55.639Z,3.95
2022-10-05T05:34:22.499Z,4.07
2022-10-05T05:39:55.435Z,4.10
2022-10-05T05:45:14.739Z,3.90
2022-10-05T05:50:34.474Z,4.10
2022-10-05T05:55:45.886Z,4.30
2022-10-05T06:01:00.074Z,5.13
2022-10-05T06:06:11.672Z,4.38
2022-10-05T06:11:35.648Z,4.53
2022-10-05T06:16:53.943Z,4.70
2022-10-05T06:22:37.572Z,4.85
2022-10-05T06:28:11.204Z,5.72
2022-10-05T06:33:25.407Z,4.75
2022-10-05T06:38:41.552Z,4.40
2022-10-05T06:43:51.822Z,4.03
2022-10-05T06:49:48.200Z,5.95
2022-10-05T06:55:30.510Z,4.43
2022-10-05T07:00:47.131Z,4.57
2022-10-05T07:06:15.955Z,4.57
2022-10-05T07:12:00.894Z,5.30
2022-10-05T07:17:25.051Z,4.20
2022-10-05T07:22:46.951Z,4.80
2022-10-05T07:28:13.575Z,4.20
2022-10-05T07:33:28.164Z,4.78
2022-10-05T07:38:38.084Z,4.90
2022-10-05T07:44:02.834Z,4.45
2022-10-05T07:49:17.832Z,5.10
2022-10-05T07:54:54.842Z,4.88
2022-10-05T08:00:07.664Z,4.47
2022-10-05T08:05:28.932Z,5.03
2022-10-05T08:10:41.139Z,4.55
2022-10-05T08:20:58.752Z,4.22
2022-10-05T08:26:02.048Z,3.92
2022-10-05T08:31:16.654Z,4.32
2022-10-05T08:36:28.860Z,3.97
2022-10-05T08:41:45.298Z,4.35
2022-10-05T08:47:21.672Z,4.90
2022-10-05T08:52:43.784Z,5.00
2022-10-05T08:57:50.386Z,4.10
2022-10-05T09:03:15.339Z,4.57
2022-10-05T09:08:40.920Z,5.55
2022-10-05T09:14:06.272Z,5.03
2022-10-05T09:19:30.771Z,4.70
2022-10-05T09:24:53.929Z,3.97
2022-10-05T09:30:22.667Z,4.10
2022-10-05T09:35:57.004Z,3.65
2022-10-05T09:41:23.575Z,4.43
2022-10-05T09:46:45.697Z,3.70
2022-10-05T09:52:03.475Z,4.15
2022-10-05T09:57:31.394Z,4.38
2022-10-05T10:02:52.305Z,4.07
2022-10-05T10:08:21.077Z,5.50
2022-10-05T10:13:24.471Z,5.22
2022-10-05T10:18:48.778Z,4.55
2022-10-05T10:24:05.752Z,5.95
2022-10-05T10:29:34.850Z,5.43
2022-10-05T10:35:12.186Z,5.30
2022-10-05T10:40:30.997Z,4.55
2022-10-05T10:45:34.300Z,5.55
2022-10-05T10:51:01.847Z,4.43
2022-10-05T10:56:26.888Z,3.60
2022-10-05T11:01:55.798Z,4.57
2022-10-05T11:07:10.334Z,4.80
2022-10-05T11:12:50.850Z,3.25
2022-10-05T11:18:17.966Z,3.70
2022-10-05T11:23:38.616Z,3.28
2022-10-05T11:28:51.775Z,3.20
2022-10-05T11:33:58.475Z,3.35
2022-10-05T11:39:07.582Z,2.70
2022-10-05T11:44:49.633Z,2.28
2022-10-05T11:50:10.719Z,2.70
2022-10-05T11:55:20.384Z,2.47
2022-10-05T12:00:29.403Z,3.28
2022-10-05T12:06:01.153Z,2.35
2022-10-05T12:16:20.733Z,2.67
2022-10-05T12:21:36.690Z,2.08
2022-10-05T12:26:55.596Z,2.22
2022-10-05T12:32:03.098Z,2.60
2022-10-05T12:37:40.456Z,1.75
2022-10-05T12:43:17.689Z,3.05
2022-10-05T12:48:58.069Z,1.70
2022-10-05T12:54:32.378Z,2.00
2022-10-05T12:59:46.584Z,1.75
2022-10-05T13:05:02.755Z,1.70
2022-10-05T13:10:21.685Z,1.67
2022-10-05T13:15:28.212Z,2.20
2022-10-05T13:20:50.085Z,2.25
2022-10-05T13:31:29.315Z,1.83
2022-10-05T13:36:41.712Z,1.75
2022-10-05T13:42:12.698Z,1.58
2022-10-05T13:47:29.687Z,2.30
2022-10-05T13:53:11.454Z,1.92
2022-10-05T13:58:32.548Z,2.67
2022-10-05T14:03:38.546Z,1.73
2022-10-05T14:08:51.550Z,2.35
2022-10-05T14:14:12.891Z,2.15
2022-10-05T14:19:19.517Z,2.40
2022-10-05T14:24:45.380Z,2.80
2022-10-05T14:30:14.126Z,2.25
2022-10-05T14:35:20.304Z,2.33
2022-10-05T14:40:36.665Z,2.50
2022-10-05T14:45:56.429Z,2.63
2022-10-05T14:51:11.415Z,2.28
2022-10-05T14:56:35.802Z,2.38
2022-10-05T15:01:49.375Z,2.45
2022-10-05T15:07:11.617Z,2.10
2022-10-05T15:17:36.885Z,3.70
2022-10-05T15:22:48.308Z,3.15
2022-10-05T15:28:33.493Z,2.88
2022-10-05T15:33:45.597Z,3.33
2022-10-05T15:44:34.011Z,2.45
2022-10-05T15:49:49.229Z,2.75
2022-10-05T15:55:26.983Z,2.88
2022-10-05T16:00:37.927Z,2.63
2022-10-05T16:05:48.135Z,2.95
2022-10-05T16:10:51.994Z,2.72
2022-10-05T16:16:21.047Z,2.75
2022-10-05T16:21:48.667Z,3.08
2022-10-05T16:27:04.391Z,2.83
2022-10-05T16:32:19.395Z,2.67
2022-10-05T16:37:49.506Z,3.55
2022-10-05T16:43:10.287Z,2.33
2022-10-05T16:48:29.051Z,3.35
2022-10-05T16:53:50.024Z,3.05
2022-10-05T16:58:53.351Z,2.78
2022-10-05T17:04:41.987Z,3.50
2022-10-05T17:10:22.798Z,3.53
2022-10-05T17:15:55.474Z,3.03
2022-10-05T17:21:09.005Z,2.88
2022-10-05T17:26:54.501Z,4.82
2022-10-05T17:32:07.306Z,3.50
2022-10-05T17:37:37.371Z,2.70
2022-10-05T17:42:40.515Z,3.17
2022-10-05T17:48:05.367Z,3.20
2022-10-05T17:53:34.924Z,3.15
2022-10-05T17:58:44.584Z,3.50
2022-10-05T18:03:49.620Z,3.95
2022-10-05T18:09:16.770Z,3.67
2022-10-05T18:14:25.033Z,3.47
2022-10-05T18:19:30.306Z,3.25
2022-10-05T18:24:51.627Z,4.25
2022-10-05T18:30:18.235Z,3.83
2022-10-05T18:35:33.288Z,3.55
2022-10-05T18:40:46.716Z,3.75
2022-10-05T18:46:02.207Z,5.57
2022-10-05T18:51:36.425Z,4.00
2022-10-05T18:56:50.900Z,4.07
2022-10-05T19:02:12.855Z,3.95
2022-10-05T19:07:30.240Z,4.70
2022-10-05T19:13:01.935Z,4.05
2022-10-05T19:18:43.570Z,4.00
2022-10-05T19:24:18.970Z,4.47
2022-10-05T19:29:55.482Z,3.22
2022-10-05T19:35:14.179Z,3.92
2022-10-05T19:40:40.685Z,4.93
2022-10-05T19:46:19.325Z,4.32
2022-10-05T19:51:31.031Z,4.65
2022-10-05T19:56:46.940Z,4.78
2022-10-05T20:01:53.010Z,3.95
2022-10-05T20:06:56.538Z,4.40
2022-10-05T20:12:00.237Z,3.78
2022-10-05T20:17:16.337Z,5.45
2022-10-05T20:22:28.577Z,4.13
2022-10-05T20:27:50.510Z,3.85
2022-10-05T20:32:59.365Z,3.90
2022-10-05T20:38:03.503Z,3.67
2022-10-05T20:43:07.631Z,4.43
2022-10-05T20:48:11.789Z,4.45
2022-10-05T20:53:15.272Z,3.67
2022-10-05T20:58:18.790Z,3.80
2022-10-05T21:03:22.389Z,4.28
2022-10-05T21:08:26.379Z,4.53
2022-10-05T21:13:30.298Z,4.22
2022-10-05T21:18:33.844Z,4.25
2022-10-05T21:23:37.212Z,4.05
2022-10-05T21:28:41.614Z,4.18
2022-10-05T21:33:45.818Z,3.80
2022-10-05T21:38:50.491Z,3.47
2022-10-05T21:43:54.275Z,4.00
2022-10-05T21:48:57.714Z,4.93
2022-10-05T21:54:13.373Z,4.28
2022-10-05T21:59:21.238Z,4.20
2022-10-05T22:04:25.782Z,3.92
2022-10-05T22:09:30.068Z,3.83
2022-10-05T22:14:33.462Z,4.00
2022-10-05T22:19:37.173Z,3.90
2022-10-05T22:24:40.583Z,4.15
2022-10-05T22:29:44.727Z,4.10
2022-10-05T22:34:48.671Z,4.07
2022-10-05T22:39:52.175Z,4.05
2022-10-05T22:44:55.536Z,4.25
2022-10-05T22:49:58.858Z,4.85
2022-10-05T22:55:02.067Z,4.15
2022-10-05T23:00:10.386Z,5.40
2022-10-05T23:05:16.750Z,4.72
2022-10-05T23:10:23.980Z,5.20
2022-10-05T23:15:28.229Z,4.68
2022-10-05T23:20:31.557Z,4.85
2022-10-05T23:25:35.262Z,5.60
2022-10-05T23:30:38.668Z,4.72
2022-10-05T23:35:41.970Z,5.75
2022-10-05T23:40:46.809Z,5.07
2022-10-05T23:45:50.980Z,5.43
2022-10-05T23:50:54.752Z,5.93
2022-10-05T23:55:58.230Z,4.55
